createdAt,value
2022-12-28T00:01:14.022Z,48.28
2022-12-28T00:03:40.674Z,48.31
2022-12-28T00:06:07.349Z,48.13
2022-12-28T00:08:33.968Z,48.25
2022-12-28T00:11:07.865Z,48.04
2022-12-28T00:13:37.168Z,48.15
2022-12-28T00:16:25.337Z,48.14
2022-12-28T00:18:52.001Z,48.06
2022-12-28T00:21:18.830Z,48.23
2022-12-28T00:23:45.342Z,47.56
2022-12-28T00:26:12.986Z,48.09
2022-12-28T00:28:40.063Z,48.24
2022-12-28T00:31:06.589Z,48.01
2022-12-28T00:33:33.150Z,48.38
2022-12-28T00:36:00.648Z,48.28
2022-12-28T00:38:28.104Z,48.12
2022-12-28T00:40:54.674Z,47.94
2022-12-28T00:43:21.237Z,48.04
2022-12-28T00:45:48.022Z,48.08
2022-12-28T00:48:15.072Z,48.18
2022-12-28T00:50:42.034Z,48.23
2022-12-28T00:53:08.652Z,48.11
2022-12-28T00:55:35.354Z,48.05
2022-12-28T00:58:02.238Z,47.93
2022-12-28T01:00:28.972Z,48.03
2022-12-28T01:02:55.722Z,47.95
2022-12-28T01:05:22.759Z,48.07
2022-12-28T01:07:49.497Z,48.29
2022-12-28T01:10:16.181Z,48.16
2022-12-28T01:12:42.779Z,48.15
2022-12-28T01:15:10.308Z,48.13
2022-12-28T01:17:36.878Z,48.05
2022-12-28T01:20:04.211Z,48.14
2022-12-28T01:22:30.994Z,47.81
2022-12-28T01:24:57.571Z,48.19
2022-12-28T01:27:24.103Z,48.05
2022-12-28T01:29:50.706Z,48.12
2022-12-28T01:32:17.240Z,47.75
2022-12-28T01:34:43.745Z,48.21
2022-12-28T01:37:10.354Z,48.04
2022-12-28T01:39:37.015Z,48.06
2022-12-28T01:42:03.564Z,47.99
2022-12-28T01:44:44.329Z,47.94
2022-12-28T01:47:14.189Z,48.03
2022-12-28T01:49:43.992Z,47.96
2022-12-28T01:52:19.864Z,47.83
2022-12-28T01:54:56.121Z,47.70
2022-12-28T01:57:25.127Z,47.81
2022-12-28T02:00:09.355Z,47.82
2022-12-28T02:02:36.330Z,47.77
2022-12-28T02:05:03.204Z,47.87
2022-12-28T02:07:57.950Z,47.96
2022-12-28T02:10:41.445Z,47.60
2022-12-28T02:13:11.294Z,47.91
2022-12-28T02:15:37.913Z,48.06
2022-12-28T02:18:04.642Z,47.83
2022-12-28T02:20:50.120Z,47.75
2022-12-28T02:23:44.896Z,47.77
2022-12-28T02:26:37.839Z,47.92
2022-12-28T02:29:31.490Z,48.00
2022-12-28T02:32:28.772Z,47.88
2022-12-28T02:35:18.630Z,47.88
2022-12-28T02:37:52.060Z,47.81
2022-12-28T02:40:26.852Z,47.72
2022-12-28T02:42:54.419Z,47.93
2022-12-28T02:45:50.503Z,47.68
2022-12-28T02:48:35.798Z,47.61
2022-12-28T02:51:14.624Z,47.89
2022-12-28T02:53:44.191Z,47.86
2022-12-28T02:56:19.749Z,47.91
2022-12-28T02:59:07.718Z,47.88
2022-12-28T03:01:49.645Z,47.91
2022-12-28T03:04:28.071Z,47.71
2022-12-28T03:07:22.552Z,47.72
2022-12-28T03:10:07.859Z,47.72
2022-12-28T03:12:40.757Z,47.73
2022-12-28T03:15:15.488Z,47.77
2022-12-28T03:18:01.207Z,47.83
2022-12-28T03:20:48.732Z,47.56
2022-12-28T03:23:35.675Z,47.76
2022-12-28T03:26:21.597Z,47.74
2022-12-28T03:29:06.712Z,47.51
2022-12-28T03:31:33.328Z,47.63
2022-12-28T03:34:08.743Z,47.72
2022-12-28T03:36:35.179Z,47.58
2022-12-28T03:39:25.130Z,47.89
2022-12-28T03:42:25.009Z,47.86
2022-12-28T03:44:55.127Z,47.74
2022-12-28T03:47:21.729Z,47.80
2022-12-28T03:49:48.253Z,47.50
2022-12-28T03:52:14.825Z,47.72
2022-12-28T03:54:41.395Z,47.57
2022-12-28T03:57:08.139Z,47.46
2022-12-28T03:59:34.816Z,47.73
2022-12-28T04:02:01.542Z,47.75
2022-12-28T04:04:28.259Z,47.79
2022-12-28T04:06:54.790Z,47.65
2022-12-28T04:09:22.491Z,48.33
2022-12-28T04:11:49.032Z,47.72
2022-12-28T04:14:15.726Z,47.70
2022-12-28T04:16:42.296Z,47.83
2022-12-28T04:19:10.435Z,47.74
2022-12-28T04:21:37.131Z,47.50
2022-12-28T04:24:03.917Z,47.69
2022-12-28T04:26:30.496Z,47.48
2022-12-28T04:29:02.066Z,47.65
2022-12-28T04:31:29.274Z,47.64
2022-12-28T04:33:58.928Z,47.57
2022-12-28T04:36:25.672Z,47.46
2022-12-28T04:38:52.219Z,47.48
2022-12-28T04:41:18.910Z,47.69
2022-12-28T04:43:45.479Z,47.49
2022-12-28T04:46:18.521Z,47.36
2022-12-28T04:48:55.541Z,47.46
2022-12-28T04:51:26.381Z,47.67
2022-12-28T04:53:53.229Z,47.71
2022-12-28T04:56:20.462Z,47.52
2022-12-28T04:58:47.223Z,47.67
2022-12-28T05:01:16.047Z,47.72
2022-12-28T05:03:48.197Z,47.36
2022-12-28T05:06:20.560Z,47.38
2022-12-28T05:08:47.489Z,47.82
2022-12-28T05:11:20.349Z,47.55
2022-12-28T05:13:49.506Z,48.09
2022-12-28T05:16:25.503Z,47.69
2022-12-28T05:18:56.820Z,47.58
2022-12-28T05:21:29.270Z,47.42
2022-12-28T05:23:58.750Z,47.64
2022-12-28T05:26:29.351Z,47.58
2022-12-28T05:28:56.480Z,47.45
2022-12-28T05:31:43.708Z,47.71
2022-12-28T05:34:10.383Z,47.53
2022-12-28T05:36:39.943Z,47.52
2022-12-28T05:39:09.735Z,47.45
2022-12-28T05:41:36.473Z,47.55
2022-12-28T05:44:03.462Z,47.54
2022-12-28T05:46:31.445Z,47.67
2022-12-28T05:48:58.257Z,47.69
2022-12-28T05:51:34.032Z,47.54
2022-12-28T05:54:01.133Z,47.50
2022-12-28T05:56:30.857Z,47.52
2022-12-28T05:58:58.240Z,47.70
2022-12-28T06:01:27.736Z,47.31
2022-12-28T06:04:04.262Z,47.28
2022-12-28T06:06:31.304Z,47.35
2022-12-28T06:09:00.062Z,47.54
2022-12-28T06:11:27.385Z,47.44
2022-12-28T06:13:54.037Z,47.60
2022-12-28T06:16:23.760Z,47.61
2022-12-28T06:18:51.884Z,47.64
2022-12-28T06:21:20.863Z,47.62
2022-12-28T06:23:47.668Z,47.59
2022-12-28T06:26:16.380Z,47.14
2022-12-28T06:28:43.533Z,47.32
2022-12-28T06:31:23.590Z,47.07
2022-12-28T06:33:57.245Z,47.32
2022-12-28T06:36:28.153Z,47.32
2022-12-28T06:38:55.795Z,47.33
2022-12-28T06:41:22.497Z,47.38
2022-12-28T06:43:49.385Z,47.55
2022-12-28T06:46:16.898Z,47.22
2022-12-28T06:48:43.766Z,47.31
2022-12-28T06:51:11.795Z,47.50
2022-12-28T06:53:38.426Z,47.37
2022-12-28T06:56:14.238Z,47.36
2022-12-28T06:58:41.087Z,47.41
2022-12-28T07:01:28.816Z,47.24
2022-12-28T07:03:56.567Z,47.69
2022-12-28T07:06:24.589Z,47.51
2022-12-28T07:08:51.281Z,47.33
2022-12-28T07:11:21.887Z,47.30
2022-12-28T07:13:48.994Z,47.45
2022-12-28T07:16:22.229Z,47.34
2022-12-28T07:18:48.895Z,46.83
2022-12-28T07:21:16.626Z,47.62
2022-12-28T07:23:43.167Z,47.13
2022-12-28T07:26:17.468Z,47.37
2022-12-28T07:28:45.210Z,47.31
2022-12-28T07:31:16.860Z,47.33
2022-12-28T07:33:43.872Z,47.50
2022-12-28T07:36:13.067Z,47.28
2022-12-28T07:38:39.722Z,47.35
2022-12-28T07:41:08.193Z,47.27
2022-12-28T07:43:34.753Z,47.32
2022-12-28T07:46:05.914Z,47.51
2022-12-28T07:48:32.894Z,47.43
2022-12-28T07:51:06.794Z,47.65
2022-12-28T07:53:33.309Z,47.19
2022-12-28T07:56:00.167Z,47.43
2022-12-28T07:58:26.689Z,46.82
2022-12-28T08:00:53.593Z,47.30
2022-12-28T08:03:20.197Z,46.24
2022-12-28T08:05:46.727Z,43.99
2022-12-28T08:08:13.337Z,42.13
2022-12-28T08:10:39.833Z,41.75
2022-12-28T08:13:06.825Z,41.16
2022-12-28T08:15:33.306Z,39.79
2022-12-28T08:17:59.911Z,39.86
2022-12-28T08:20:26.450Z,39.61
2022-12-28T08:22:53.359Z,40.80
2022-12-28T08:25:19.844Z,41.24
2022-12-28T08:27:46.317Z,42.06
2022-12-28T08:30:13.083Z,42.55
2022-12-28T08:32:39.559Z,42.83
2022-12-28T08:35:06.309Z,43.13
2022-12-28T08:37:32.821Z,43.29
2022-12-28T08:39:59.353Z,43.63
2022-12-28T08:42:25.905Z,44.16
2022-12-28T08:44:52.403Z,44.23
2022-12-28T08:47:18.896Z,44.65
2022-12-28T08:49:45.392Z,45.00
2022-12-28T08:52:11.988Z,44.47
2022-12-28T08:54:38.553Z,44.43
2022-12-28T08:57:05.084Z,44.86
2022-12-28T08:59:31.608Z,45.06
2022-12-28T09:01:58.245Z,44.68
2022-12-28T09:04:24.926Z,44.85
2022-12-28T09:06:51.519Z,44.97
2022-12-28T09:09:19.479Z,45.15
2022-12-28T09:11:46.155Z,45.21
2022-12-28T09:14:20.424Z,45.09
2022-12-28T09:16:49.600Z,45.09
2022-12-28T09:19:16.160Z,45.32
2022-12-28T09:21:42.886Z,45.36
2022-12-28T09:24:09.524Z,45.32
2022-12-28T09:26:37.172Z,45.60
2022-12-28T09:29:05.247Z,45.35
2022-12-28T09:31:32.499Z,45.51
2022-12-28T09:36:49.129Z,45.49
2022-12-28T09:39:19.931Z,45.62
2022-12-28T09:41:50.301Z,45.81
2022-12-28T09:44:41.672Z,45.69
2022-12-28T09:47:08.072Z,45.74
2022-12-28T09:49:44.729Z,45.78
2022-12-28T09:52:14.252Z,46.00
2022-12-28T09:54:41.011Z,46.00
2022-12-28T09:57:12.772Z,45.72
2022-12-28T09:59:39.366Z,46.23
2022-12-28T10:02:17.213Z,45.89
2022-12-28T10:04:49.113Z,46.29
2022-12-28T10:07:16.061Z,45.62
2022-12-28T10:09:42.541Z,46.29
2022-12-28T10:12:16.776Z,45.97
2022-12-28T10:14:45.624Z,45.96
2022-12-28T10:17:13.114Z,46.05
2022-12-28T10:19:39.633Z,45.87
2022-12-28T10:22:07.690Z,45.98
2022-12-28T10:24:34.208Z,45.94
2022-12-28T10:27:02.134Z,45.99
2022-12-28T10:29:30.801Z,45.94
2022-12-28T10:32:09.346Z,46.00
2022-12-28T10:34:36.509Z,45.89
2022-12-28T10:37:14.031Z,46.35
2022-12-28T10:39:50.176Z,46.00
2022-12-28T10:42:27.816Z,45.95
2022-12-28T10:44:55.962Z,46.25
2022-12-28T10:47:28.295Z,46.64
2022-12-28T10:52:41.448Z,45.80
2022-12-28T10:55:34.371Z,46.44
2022-12-28T10:58:30.056Z,46.58
2022-12-28T11:01:07.099Z,46.55
2022-12-28T11:03:36.886Z,46.38
2022-12-28T11:06:26.340Z,46.73
2022-12-28T11:09:07.137Z,46.44
2022-12-28T11:11:33.782Z,46.96
2022-12-28T11:14:06.408Z,46.66
2022-12-28T11:16:36.552Z,46.72
2022-12-28T11:19:03.574Z,46.67
2022-12-28T11:21:30.704Z,46.63
2022-12-28T11:23:57.230Z,46.61
2022-12-28T11:26:23.870Z,46.61
2022-12-28T11:28:51.817Z,46.77
2022-12-28T11:31:33.448Z,46.88
2022-12-28T11:34:03.508Z,46.71
2022-12-28T11:36:30.157Z,46.70
2022-12-28T11:38:56.779Z,46.44
2022-12-28T11:41:33.907Z,46.77
2022-12-28T11:44:05.021Z,46.60
2022-12-28T11:46:31.463Z,46.66
2022-12-28T11:49:05.482Z,46.39
2022-12-28T11:51:33.346Z,46.64
2022-12-28T11:54:00.064Z,46.86
2022-12-28T11:56:45.138Z,46.77
2022-12-28T11:59:29.245Z,46.68
2022-12-28T12:02:20.674Z,46.79
2022-12-28T12:04:47.443Z,46.97
2022-12-28T12:07:19.989Z,46.95
2022-12-28T12:20:43.660Z,46.79
2022-12-28T12:23:18.607Z,46.86
2022-12-28T12:25:47.583Z,47.06
2022-12-28T12:28:34.431Z,46.87
2022-12-28T12:31:02.261Z,46.82
2022-12-28T12:33:32.068Z,47.06
2022-12-28T12:36:11.297Z,46.66
2022-12-28T12:38:40.945Z,46.78
2022-12-28T12:41:30.692Z,46.88
2022-12-28T12:44:09.466Z,46.85
2022-12-28T12:46:44.949Z,46.85
2022-12-28T12:49:53.089Z,46.92
2022-12-28T12:52:54.372Z,46.76
2022-12-28T12:55:43.823Z,46.82
2022-12-28T12:58:48.252Z,45.16
2022-12-28T13:01:26.821Z,43.71
2022-12-28T13:03:53.998Z,43.18
2022-12-28T13:06:23.259Z,42.91
2022-12-28T13:08:50.871Z,43.21
2022-12-28T13:11:17.782Z,43.34
2022-12-28T13:13:46.023Z,43.97
2022-12-28T13:16:26.463Z,44.39
2022-12-28T13:18:57.699Z,44.35
2022-12-28T13:21:26.097Z,44.69
2022-12-28T13:23:52.838Z,44.85
2022-12-28T13:26:24.915Z,45.05
2022-12-28T13:28:55.995Z,45.25
2022-12-28T13:31:28.865Z,45.28
2022-12-28T13:34:00.192Z,45.32
2022-12-28T13:36:26.842Z,45.36
2022-12-28T13:39:11.112Z,45.53
2022-12-28T13:41:37.640Z,45.81
2022-12-28T13:44:19.014Z,45.83
2022-12-28T13:46:50.291Z,45.86
2022-12-28T13:49:17.675Z,46.01
2022-12-28T13:51:48.363Z,46.02
2022-12-28T13:54:18.006Z,45.89
2022-12-28T13:56:44.609Z,45.94
2022-12-28T13:59:16.175Z,45.69
2022-12-28T14:01:44.319Z,46.11
2022-12-28T14:04:51.120Z,45.94
2022-12-28T14:07:00.111Z,45.45
2022-12-28T14:09:26.618Z,46.12
2022-12-28T14:11:53.165Z,46.19
2022-12-28T14:14:19.681Z,46.23
2022-12-28T14:16:46.214Z,46.18
2022-12-28T14:19:12.780Z,46.37
2022-12-28T14:21:45.018Z,46.40
2022-12-28T14:24:13.494Z,46.39
2022-12-28T14:26:45.835Z,46.33
2022-12-28T14:29:14.246Z,46.52
2022-12-28T14:31:40.979Z,46.34
2022-12-28T14:34:07.610Z,46.48
2022-12-28T14:36:40.596Z,46.59
2022-12-28T14:39:07.730Z,46.51
2022-12-28T14:41:39.315Z,46.63
2022-12-28T14:44:07.605Z,46.79
2022-12-28T14:46:36.009Z,46.68
2022-12-28T14:49:24.721Z,46.87
2022-12-28T14:51:51.289Z,46.66
2022-12-28T14:54:20.852Z,46.73
2022-12-28T14:56:54.107Z,46.83
2022-12-28T14:59:30.251Z,46.92
2022-12-28T15:01:57.031Z,47.34
2022-12-28T15:04:39.871Z,47.01
2022-12-28T15:07:07.869Z,46.96
2022-12-28T15:09:34.522Z,45.54
2022-12-28T15:12:21.423Z,45.21
2022-12-28T15:14:48.814Z,45.66
2022-12-28T15:17:15.566Z,45.67
2022-12-28T15:19:42.667Z,45.78
2022-12-28T15:22:09.303Z,45.78
2022-12-28T15:24:35.866Z,45.85
2022-12-28T15:27:03.061Z,46.45
2022-12-28T15:30:03.857Z,46.28
2022-12-28T15:32:16.383Z,46.46
2022-12-28T15:34:42.936Z,46.58
2022-12-28T15:37:09.527Z,46.67
2022-12-28T15:39:36.315Z,46.72
2022-12-28T15:42:02.905Z,46.69
2022-12-28T15:44:29.473Z,46.89
2022-12-28T15:46:56.164Z,47.04
2022-12-28T15:49:22.895Z,46.97
2022-12-28T15:51:49.488Z,47.03
2022-12-28T15:54:19.185Z,47.18
2022-12-28T15:56:54.982Z,47.16
2022-12-28T15:59:21.583Z,47.59
2022-12-28T16:01:48.617Z,47.40
2022-12-28T16:04:15.490Z,47.31
2022-12-28T16:06:45.034Z,47.49
2022-12-28T16:09:12.377Z,47.36
2022-12-28T16:11:38.951Z,47.59
2022-12-28T16:14:06.274Z,47.56
2022-12-28T16:16:37.514Z,47.61
2022-12-28T16:19:05.875Z,47.67
2022-12-28T16:21:32.528Z,47.54
2022-12-28T16:23:59.795Z,47.78
2022-12-28T16:26:26.332Z,47.93
2022-12-28T16:28:52.963Z,47.67
2022-12-28T16:31:49.048Z,47.70
2022-12-28T16:34:16.971Z,47.77
2022-12-28T16:36:45.478Z,47.79
2022-12-28T16:39:13.349Z,47.74
2022-12-28T16:41:39.933Z,48.13
2022-12-28T16:44:17.608Z,47.99
2022-12-28T16:46:44.279Z,47.87
2022-12-28T16:49:11.470Z,48.02
2022-12-28T16:51:39.315Z,48.01
2022-12-28T16:54:06.505Z,47.95
2022-12-28T16:56:33.283Z,48.07
2022-12-28T16:59:00.602Z,47.94
2022-12-28T17:01:27.475Z,47.81
2022-12-28T17:03:57.310Z,47.88
2022-12-28T17:06:26.766Z,48.51
2022-12-28T17:08:53.317Z,48.39
2022-12-28T17:11:19.883Z,48.36
2022-12-28T17:13:46.449Z,48.24
2022-12-28T17:16:13.072Z,48.22
2022-12-28T17:18:39.670Z,47.97
2022-12-28T17:21:07.312Z,48.63
2022-12-28T17:23:34.051Z,48.29
2022-12-28T17:26:00.653Z,48.22
2022-12-28T17:28:27.239Z,47.89
2022-12-28T17:31:04.248Z,48.29
2022-12-28T17:33:35.596Z,48.23
2022-12-28T17:36:05.839Z,48.35
2022-12-28T17:38:32.507Z,48.44
2022-12-28T17:40:59.119Z,48.23
2022-12-28T17:43:31.669Z,48.19
2022-12-28T17:46:01.433Z,48.47
2022-12-28T17:48:30.206Z,48.38
2022-12-28T17:50:58.953Z,48.13
2022-12-28T17:53:25.839Z,48.65
2022-12-28T17:55:52.410Z,48.64
2022-12-28T17:58:18.931Z,48.21
2022-12-28T18:00:45.535Z,48.64
2022-12-28T18:03:12.087Z,48.22
2022-12-28T18:05:38.714Z,48.49
2022-12-28T18:08:05.461Z,48.49
2022-12-28T18:10:32.001Z,48.62
2022-12-28T18:12:58.586Z,48.33
2022-12-28T18:15:29.795Z,48.54
2022-12-28T18:18:00.050Z,48.52
2022-12-28T18:20:26.659Z,48.55
2022-12-28T18:22:53.293Z,48.09
2022-12-28T18:25:19.955Z,48.97
2022-12-28T18:27:46.521Z,48.98
2022-12-28T18:30:13.724Z,48.72
2022-12-28T18:32:40.349Z,48.68
2022-12-28T18:35:07.767Z,48.71
2022-12-28T18:37:34.639Z,48.62
2022-12-28T18:40:01.395Z,48.77
2022-12-28T18:42:27.918Z,48.71
2022-12-28T18:44:54.552Z,48.66
2022-12-28T18:47:21.101Z,48.68
2022-12-28T18:49:48.384Z,48.74
2022-12-28T18:52:15.974Z,48.70
2022-12-28T18:54:42.762Z,48.71
2022-12-28T18:57:09.337Z,48.67
2022-12-28T18:59:35.990Z,48.64
2022-12-28T19:02:07.375Z,48.74
2022-12-28T19:04:35.165Z,49.08
2022-12-28T19:07:01.808Z,50.00
2022-12-28T19:09:28.367Z,50.05
2022-12-28T19:11:55.560Z,49.63
2022-12-28T19:14:22.197Z,51.02
2022-12-28T19:16:48.758Z,51.49
2022-12-28T19:19:17.242Z,51.46
2022-12-28T19:21:43.986Z,50.99
2022-12-28T19:24:15.943Z,50.82
2022-12-28T19:26:42.588Z,50.88
2022-12-28T19:29:11.209Z,50.41
2022-12-28T19:31:37.859Z,50.36
2022-12-28T19:34:04.456Z,50.09
2022-12-28T19:36:31.083Z,50.07
2022-12-28T19:38:57.822Z,50.01
2022-12-28T19:41:24.515Z,49.99
2022-12-28T19:43:51.088Z,49.91
2022-12-28T19:46:22.361Z,49.79
2022-12-28T19:48:52.328Z,49.71
2022-12-28T19:51:18.938Z,49.58
2022-12-28T19:53:45.519Z,50.01
2022-12-28T19:56:13.358Z,49.74
2022-12-28T19:58:40.118Z,49.61
2022-12-28T20:01:11.715Z,49.79
2022-12-28T20:03:38.544Z,50.05
2022-12-28T20:06:12.456Z,49.92
2022-12-28T20:08:39.416Z,49.90
2022-12-28T20:11:06.159Z,49.98
2022-12-28T20:13:33.321Z,49.92
2022-12-28T20:16:00.001Z,49.85
2022-12-28T20:18:26.638Z,49.78
2022-12-28T20:21:18.548Z,49.74
2022-12-28T20:23:39.752Z,49.74
2022-12-28T20:26:06.308Z,49.79
2022-12-28T20:28:32.978Z,49.76
2022-12-28T20:31:01.132Z,49.80
2022-12-28T20:33:27.819Z,49.87
2022-12-28T20:35:58.814Z,49.96
2022-12-28T20:38:25.710Z,49.81
2022-12-28T20:41:05.589Z,49.84
2022-12-28T20:43:32.701Z,49.53
2022-12-28T20:45:59.408Z,49.89
2022-12-28T20:48:26.065Z,49.87
2022-12-28T20:50:59.618Z,49.66
2022-12-28T20:53:27.126Z,49.69
2022-12-28T20:55:53.700Z,49.95
2022-12-28T20:58:20.397Z,49.74
2022-12-28T21:00:46.987Z,49.68
2022-12-28T21:03:13.650Z,49.85
2022-12-28T21:05:40.254Z,49.82
2022-12-28T21:08:06.854Z,49.47
2022-12-28T21:10:33.509Z,49.89
2022-12-28T21:13:00.150Z,49.86
2022-12-28T21:15:26.860Z,49.90
2022-12-28T21:17:53.459Z,49.45
2022-12-28T21:20:20.182Z,49.88
2022-12-28T21:22:46.719Z,49.90
2022-12-28T21:25:13.275Z,49.81
2022-12-28T21:27:39.921Z,49.95
2022-12-28T21:30:07.304Z,50.06
2022-12-28T21:32:33.984Z,49.67
2022-12-28T21:35:00.582Z,50.26
2022-12-28T21:37:36.197Z,49.80
2022-12-28T21:40:04.610Z,49.89
2022-12-28T21:42:31.122Z,49.09
2022-12-28T21:44:57.759Z,49.87
2022-12-28T21:47:24.332Z,49.91
2022-12-28T21:49:50.939Z,49.92
2022-12-28T21:52:17.557Z,50.04
2022-12-28T21:54:45.580Z,50.02
2022-12-28T21:57:12.583Z,49.89
2022-12-28T21:59:39.309Z,49.84
2022-12-28T22:02:36.011Z,49.85
2022-12-28T22:05:21.971Z,49.95
2022-12-28T22:08:09.542Z,49.91
2022-12-28T22:10:56.562Z,49.90
2022-12-28T22:13:23.336Z,49.93
2022-12-28T22:15:52.643Z,49.50
2022-12-28T22:21:07.432Z,50.32
2022-12-28T22:23:34.976Z,49.77
2022-12-28T22:26:01.883Z,49.88
2022-12-28T22:28:28.550Z,49.97
2022-12-28T22:30:55.192Z,50.02
2022-12-28T22:33:21.849Z,50.22
2022-12-28T22:35:48.445Z,49.93
2022-12-28T22:38:14.985Z,49.92
2022-12-28T22:40:41.577Z,49.57
2022-12-28T22:43:08.145Z,49.85
2022-12-28T22:45:34.879Z,50.01
2022-12-28T22:48:01.559Z,49.84
2022-12-28T22:50:28.815Z,49.86
2022-12-28T22:52:55.965Z,49.82
2022-12-28T22:55:22.547Z,49.84
2022-12-28T22:57:49.181Z,50.16
2022-12-28T23:00:16.069Z,49.91
2022-12-28T23:02:43.284Z,49.97
2022-12-28T23:05:10.167Z,50.06
2022-12-28T23:07:38.582Z,50.14
2022-12-28T23:10:07.002Z,49.88
2022-12-28T23:12:33.764Z,49.93
2022-12-28T23:15:19.770Z,49.82
2022-12-28T23:17:49.963Z,49.91
2022-12-28T23:20:35.734Z,49.82
2022-12-28T23:23:20.616Z,50.14
2022-12-28T23:26:05.792Z,49.82
2022-12-28T23:28:32.421Z,49.71
2022-12-28T23:30:59.064Z,49.37
2022-12-28T23:33:25.676Z,49.84
2022-12-28T23:35:52.277Z,49.83
2022-12-28T23:38:19.021Z,49.59
2022-12-28T23:40:45.571Z,49.85
2022-12-28T23:43:12.238Z,49.56
2022-12-28T23:45:38.851Z,49.73
2022-12-28T23:48:05.648Z,49.70
2022-12-28T23:50:32.183Z,49.79
2022-12-28T23:52:58.736Z,49.81
2022-12-28T23:55:25.299Z,49.74
2022-12-28T23:57:51.887Z,49.92
